TimeCDT,TemperatureF,Dew PointF,Humidity,Sea Level PressureIn,VisibilityMPH,Wind Direction,Wind SpeedMPH,Gust SpeedMPH,PrecipitationIn,Events,Conditions,WindDirDegrees,DateUTC
12:56 AM,63.0,57.9,84,29.98,10.0,WSW,4.6,-,N/A,,Overcast,240,2012-11-01 05:56:00
1:56 AM,62.1,57.9,86,29.99,8.0,West,4.6,-,0.00,Rain,Light Rain,270,2012-11-01 06:56:00
2:56 AM,62.1,57.9,86,29.98,10.0,West,3.5,-,0.00,,Overcast,270,2012-11-01 07:56:00
3:56 AM,60.1,57.0,90,29.98,10.0,WNW,3.5,-,N/A,,Partly Cloudy,290,2012-11-01 08:56:00
4:56 AM,57.9,55.0,90,30.00,10.0,North,6.9,-,N/A,,Partly Cloudy,350,2012-11-01 09:56:00
5:56 AM,55.0,51.1,86,30.01,10.0,Calm,Calm,-,N/A,,Partly Cloudy,0,2012-11-01 10:56:00
6:56 AM,52.0,48.0,86,30.03,10.0,North,4.6,-,N/A,,Partly Cloudy,10,2012-11-01 11:56:00
7:56 AM,55.0,48.0,77,30.05,10.0,NNE,5.8,-,N/A,,Clear,20,2012-11-01 12:56:00
8:56 AM,61.0,46.9,60,30.07,10.0,NE,5.8,-,N/A,,Partly Cloudy,40,2012-11-01 13:56:00
9:56 AM,64.9,43.0,45,30.09,10.0,NNE,5.8,-,N/A,,Clear,20,2012-11-01 14:56:00
10:56 AM,69.1,42.1,38,30.09,10.0,NE,5.8,-,N/A,,Clear,50,2012-11-01 15:56:00
11:56 AM,72.0,42.1,34,30.07,10.0,Variable,5.8,-,N/A,,Partly Cloudy,0,2012-11-01 16:56:00
12:56 PM,73.0,42.1,33,30.04,10.0,Calm,Calm,-,N/A,,Partly Cloudy,0,2012-11-01 17:56:00
1:56 PM,73.9,42.1,32,30.02,10.0,Variable,5.8,-,N/A,,Clear,0,2012-11-01 18:56:00
2:56 PM,75.9,43.0,31,29.99,10.0,West,5.8,-,N/A,,Clear,280,2012-11-01 19:56:00
3:56 PM,75.9,44.1,32,29.99,10.0,NW,6.9,-,N/A,,Clear,310,2012-11-01 20:56:00
4:56 PM,73.9,45.0,35,29.99,10.0,NW,4.6,-,N/A,,Clear,310,2012-11-01 21:56:00
5:56 PM,70.0,46.9,44,30.01,10.0,WNW,3.5,-,N/A,,Clear,290,2012-11-01 22:56:00
6:56 PM,64.0,48.0,56,30.02,10.0,SSW,3.5,-,N/A,,Clear,200,2012-11-01 23:56:00
7:56 PM,57.9,48.9,72,30.04,10.0,Calm,Calm,-,N/A,,Clear,0,2012-11-02 00:56:00
8:56 PM,60.1,50.0,69,30.04,10.0,Calm,Calm,-,N/A,,Clear,0,2012-11-02 01:56:00
9:56 PM,55.9,50.0,80,30.06,10.0,Calm,Calm,-,N/A,,Clear,0,2012-11-02 02:56:00
10:56 PM,53.1,48.0,83,30.05,10.0,Calm,Calm,-,N/A,,Clear,0,2012-11-02 03:56:00
11:56 PM,52.0,48.9,89,30.04,10.0,Calm,Calm,-,N/A,,Clear,0,2012-11-02 04:56:00